Time;durP1;ratioP1;P1;durP2;ratioP2;P2;SDS_P1;SDS_P2;PMS_P1;PMS_P2;Temp;Humidity;BMP_temperature;BMP_pressure;BME280_temperature;BME280_humidity;BME280_pressure;Samples;Min_cycle;Max_cycle;Signal;HPM_P1;HPM_P2
2023/02/13 00:01:08;;;;;;;18.90;12.00;;;;;;;13.73;96.49;103014.63;4967153;28;20069;-71
2023/02/13 00:03:33;;;;;;;19.75;12.63;;;;;;;13.65;100.00;103017.13;4973387;28;20038;-70
2023/02/13 00:05:59;;;;;;;22.35;12.40;;;;;;;13.80;100.00;103023.41;4960283;28;20051;-70
2023/02/13 00:08:24;;;;;;;16.83;13.52;;;;;;;14.00;99.83;103021.69;4954502;28;20387;-71
2023/02/13 00:10:50;;;;;;;25.52;13.27;;;;;;;13.99;100.00;103023.63;4954474;28;20069;-72
2023/02/13 00:13:15;;;;;;;23.23;13.13;;;;;;;14.14;99.80;103020.00;4954732;28;20031;-72
2023/02/13 00:15:41;;;;;;;18.23;12.55;;;;;;;14.21;99.08;103019.66;4954464;28;20083;-80
2023/02/13 00:18:07;;;;;;;22.08;13.50;;;;;;;13.91;100.00;103020.63;4954398;28;20027;-79
2023/02/13 00:20:32;;;;;;;22.08;13.25;;;;;;;13.97;100.00;103022.25;4954578;28;20034;-71
2023/02/13 00:22:58;;;;;;;24.77;13.77;;;;;;;13.91;100.00;103017.88;4954456;28;20089;-71
2023/02/13 00:25:24;;;;;;;21.42;14.10;;;;;;;14.12;100.00;103025.75;4954430;28;20057;-82
2023/02/13 00:27:55;;;;;;;18.88;12.60;;;;;;;14.15;100.00;103019.72;4954401;28;20710;-82
2023/02/13 00:30:21;;;;;;;23.25;13.05;;;;;;;13.93;100.00;103021.16;4954342;28;20114;-81
2023/02/13 00:32:46;;;;;;;22.67;14.27;;;;;;;14.11;100.00;103024.09;4954519;28;20106;-83
2023/02/13 00:35:12;;;;;;;20.48;12.85;;;;;;;14.10;100.00;103021.66;4954592;28;20126;-81
2023/02/13 00:37:37;;;;;;;21.77;13.75;;;;;;;14.25;100.00;103015.25;4954317;28;20114;-83
2023/02/13 00:40:03;;;;;;;18.00;11.38;;;;;;;13.89;100.00;103020.88;4961139;28;20110;-82
2023/02/13 00:42:29;;;;;;;17.73;12.43;;;;;;;13.88;100.00;103013.75;4962068;28;20057;-82
2023/02/13 00:44:54;;;;;;;16.73;11.75;;;;;;;14.22;100.00;103019.41;4962310;28;20058;-74
2023/02/13 00:47:20;;;;;;;18.58;12.52;;;;;;;14.19;100.00;103019.94;4961468;28;20433;-71
2023/02/13 00:49:46;;;;;;;18.83;12.85;;;;;;;14.23;100.00;103017.47;4963517;28;20503;-75
2023/02/13 00:52:12;;;;;;;17.63;11.35;;;;;;;14.30;100.00;103020.75;4961132;28;20023;-70
2023/02/13 00:54:37;;;;;;;17.40;12.43;;;;;;;14.32;100.00;103018.53;4961854;28;20110;-82
2023/02/13 00:57:03;;;;;;;14.27;11.10;;;;;;;14.35;100.00;103012.44;4963478;28;20018;-73
2023/02/13 00:59:29;;;;;;;17.38;12.02;;;;;;;14.38;100.00;103017.41;4961832;28;20039;-71
2023/02/13 01:01:54;;;;;;;17.27;10.48;;;;;;;14.51;100.00;103022.31;4962402;28;20019;-70
2023/02/13 01:04:20;;;;;;;18.13;10.90;;;;;;;14.39;100.00;103014.34;4960627;28;20035;-77
2023/02/13 01:06:45;;;;;;;15.82;11.80;;;;;;;14.35;100.00;103013.25;4954128;28;20027;-71
2023/02/13 01:09:11;;;;;;;18.75;11.05;;;;;;;14.38;100.00;103017.41;4954643;28;20106;-71
2023/02/13 01:11:36;;;;;;;19.90;11.07;;;;;;;14.37;100.00;103019.31;4957809;28;20502;-72
2023/02/13 01:14:02;;;;;;;18.48;11.73;;;;;;;14.23;100.00;103012.78;4972253;28;20023;-71
2023/02/13 01:16:28;;;;;;;16.85;10.30;;;;;;;14.24;100.00;103022.69;4976545;28;20027;-80
2023/02/13 01:18:53;;;;;;;17.08;11.80;;;;;;;14.28;100.00;103011.94;4976759;28;20027;-71
2023/02/13 01:21:22;;;;;;;17.27;10.80;;;;;;;14.21;100.00;103012.25;4976829;28;20023;-71
2023/02/13 01:23:48;;;;;;;21.98;11.73;;;;;;;14.22;100.00;103002.91;4976557;28;20038;-71
2023/02/13 01:26:22;;;;;;;22.45;12.38;;;;;;;14.11;100.00;103001.28;4976700;28;20393;-79
2023/02/13 01:28:51;;;;;;;19.65;11.63;;;;;;;14.07;100.00;103003.78;4976769;28;20027;-80
2023/02/13 01:31:19;;;;;;;16.15;10.38;;;;;;;14.13;100.00;102990.81;4976486;28;20370;-76
2023/02/13 01:33:45;;;;;;;17.30;10.50;;;;;;;14.03;100.00;102996.38;4976542;28;20038;-80
2023/02/13 01:36:12;;;;;;;14.77;10.98;;;;;;;14.06;100.00;102993.09;4976407;28;20026;-71
2023/02/13 01:38:39;;;;;;;20.48;12.15;;;;;;;13.99;100.00;102993.38;4976476;28;20079;-71
2023/02/13 01:41:05;;;;;;;17.85;10.70;;;;;;;13.97;100.00;102995.56;4976710;28;20023;-70
2023/02/13 01:43:46;;;;;;;17.20;10.55;;;;;;;14.01;100.00;102995.84;4976394;28;20031;-71
2023/02/13 01:46:16;;;;;;;16.58;10.52;;;;;;;14.02;100.00;102992.81;4976338;28;20027;-72
2023/02/13 01:48:41;;;;;;;18.35;9.90;;;;;;;14.03;100.00;102996.38;4976256;28;20026;-72
2023/02/13 01:51:13;;;;;;;15.25;10.77;;;;;;;14.00;100.00;102988.72;4976344;28;20366;-79
2023/02/13 01:53:44;;;;;;;15.77;10.70;;;;;;;14.08;100.00;102988.13;4976354;28;20477;-73
2023/02/13 01:56:16;;;;;;;20.65;11.63;;;;;;;14.11;100.00;102993.03;4976216;28;20035;-71
2023/02/13 01:58:45;;;;;;;18.33;10.95;;;;;;;14.15;100.00;102986.72;4976450;28;20438;-71
2023/02/13 02:01:11;;;;;;;16.38;10.02;;;;;;;14.15;100.00;102999.63;4976125;28;20067;-72
2023/02/13 02:03:42;;;;;;;18.77;11.60;;;;;;;14.11;100.00;102998.53;4976067;28;20034;-77
2023/02/13 02:06:15;;;;;;;18.25;10.45;;;;;;;14.03;100.00;102988.13;4975800;28;20061;-71
2023/02/13 02:08:41;;;;;;;17.48;11.02;;;;;;;14.05;100.00;102985.91;4975901;28;20034;-71
2023/02/13 02:11:16;;;;;;;19.98;11.65;;;;;;;13.93;100.00;102983.50;4975849;28;20037;-71
2023/02/13 02:13:42;;;;;;;23.30;11.55;;;;;;;13.82;100.00;102979.16;4975891;28;20038;-71
2023/02/13 02:16:07;;;;;;;15.18;10.10;;;;;;;13.88;100.00;102978.84;4975809;28;20022;-71
2023/02/13 02:18:33;;;;;;;18.48;10.85;;;;;;;13.73;100.00;102983.56;4975743;28;20030;-82
2023/02/13 02:21:21;;;;;;;20.20;11.20;;;;;;;13.68;100.00;102981.69;4974983;28;20054;-77
2023/02/13 02:24:15;;;;;;;19.67;12.45;;;;;;;13.69;100.00;102986.06;4969975;28;20134;-80
2023/02/13 02:26:58;;;;;;;15.02;9.48;;;;;;;13.72;100.00;102981.94;4975573;28;20031;-71
2023/02/13 02:29:40;;;;;;;22.90;11.07;;;;;;;13.59;100.00;102975.09;4975860;28;20097;-71
2023/02/13 02:32:35;;;;;;;16.35;10.68;;;;;;;13.55;100.00;102972.09;4975506;28;20059;-71
2023/02/13 02:35:06;;;;;;;19.05;11.25;;;;;;;13.37;100.00;102963.63;4973803;28;20065;-80
2023/02/13 02:37:59;;;;;;;22.17;10.68;;;;;;;13.52;100.00;102964.41;4975369;28;20031;-77
2023/02/13 02:40:32;;;;;;;24.92;13.07;;;;;;;13.59;100.00;102966.84;4975374;28;20039;-75
2023/02/13 02:43:12;;;;;;;19.20;11.07;;;;;;;13.62;100.00;102960.81;4975443;28;20035;-71
2023/02/13 02:45:54;;;;;;;18.60;11.40;;;;;;;13.54;100.00;102955.91;4975196;28;20105;-71
2023/02/13 02:51:26;;;;;;;21.48;11.63;;;;;;;13.16;100.00;102952.66;4975461;28;20042;-81
2023/02/13 02:53:54;;;;;;;18.13;11.32;;;;;;;13.17;100.00;102953.47;4975390;28;20115;-71
2023/02/13 02:56:30;;;;;;;20.30;11.65;;;;;;;13.15;100.00;102951.03;4975066;28;20039;-71
2023/02/13 03:07:18;;;;;;;21.30;12.80;;;;;;;12.97;100.00;102946.91;4974939;28;20038;-78
2023/02/13 03:15:29;;;;;;;19.48;11.80;;;;;;;12.93;100.00;102940.34;4975152;28;20049;-72
2023/02/13 03:24:24;;;;;;;;;;;;;;;12.74;100.00;102937.31;4927825;28;20498;-71
2023/02/13 03:27:13;;;;;;;19.80;11.65;;;;;;;12.97;100.00;102932.34;4974905;28;20319;-71
2023/02/13 03:30:06;;;;;;;19.73;11.95;;;;;;;12.81;100.00;102938.97;4974907;28;20094;-78
2023/02/13 03:32:45;;;;;;;20.38;13.75;;;;;;;12.75;100.00;102927.97;4971894;28;20023;-82
2023/02/13 03:38:23;;;;;;;25.10;13.55;;;;;;;12.84;100.00;102935.66;4974553;28;20046;-72
2023/02/13 03:44:09;;;;;;;20.80;12.63;;;;;;;12.91;100.00;102927.97;4974495;28;20073;-71
2023/02/13 03:46:40;;;;;;;20.80;12.32;;;;;;;12.91;100.00;102922.47;4962314;28;20280;-74
2023/02/13 03:52:22;;;;;;;20.02;13.20;;;;;;;12.99;100.00;102927.41;4974168;28;20033;-71
2023/02/13 04:00:28;;;;;;;26.50;14.30;;;;;;;13.12;100.00;102918.63;4974103;28;20146;-72
2023/02/13 04:03:15;;;;;;;27.27;14.75;;;;;;;13.08;100.00;102925.78;4974080;28;20038;-71
2023/02/13 04:05:47;;;;;;;24.85;14.10;;;;;;;13.06;100.00;102922.47;4973619;28;20409;-72
2023/02/13 04:08:13;;;;;;;30.55;14.07;;;;;;;13.20;100.00;102920.81;4973560;28;20022;-71
2023/02/13 04:10:55;;;;;;;19.23;13.20;;;;;;;13.12;100.00;102912.31;4973985;28;20030;-72
2023/02/13 04:13:34;;;;;;;20.05;13.70;;;;;;;13.23;100.00;102912.06;4974133;28;20100;-72
2023/02/13 04:16:10;;;;;;;18.33;13.05;;;;;;;13.24;100.00;102916.44;4973958;28;20121;-71
2023/02/13 04:18:37;;;;;;;26.50;13.60;;;;;;;13.20;100.00;102909.84;4973893;28;20390;-71
2023/02/13 04:21:05;;;;;;;23.48;14.18;;;;;;;13.31;100.00;102916.97;4973612;28;20169;-72
2023/02/13 04:23:30;;;;;;;21.15;13.38;;;;;;;13.37;100.00;102911.44;4973838;28;20089;-71
2023/02/13 04:25:59;;;;;;;20.58;14.07;;;;;;;13.17;100.00;102910.38;4973859;28;20027;-71
2023/02/13 04:28:24;;;;;;;24.65;13.65;;;;;;;13.09;100.00;102908.22;4973738;28;20371;-71
2023/02/13 04:30:50;;;;;;;21.70;13.45;;;;;;;12.91;100.00;102908.75;4973801;28;20038;-71
2023/02/13 04:33:15;;;;;;;22.45;13.05;;;;;;;13.03;100.00;102909.31;4973925;28;20027;-82
2023/02/13 04:35:41;;;;;;;20.42;13.57;;;;;;;12.88;100.00;102912.06;4973576;28;20031;-71
2023/02/13 04:38:06;;;;;;;24.77;13.77;;;;;;;12.79;100.00;102911.81;4973637;28;20129;-75
2023/02/13 04:40:32;;;;;;;21.15;13.80;;;;;;;12.78;100.00;102910.97;4973517;28;20030;-71
2023/02/13 04:42:58;;;;;;;28.60;13.80;;;;;;;12.90;100.00;102905.19;4973456;28;20389;-77
2023/02/13 04:45:23;;;;;;;23.85;12.57;;;;;;;13.06;100.00;102909.56;4964944;28;20034;-71
2023/02/13 04:47:53;;;;;;;26.25;14.25;;;;;;;13.05;100.00;102901.63;4977398;28;20061;-82
2023/02/13 04:50:19;;;;;;;24.88;13.88;;;;;;;12.85;100.00;102902.47;4977409;28;20026;-71
2023/02/13 04:52:45;;;;;;;24.52;13.63;;;;;;;12.69;100.00;102898.91;4977564;28;20018;-71
2023/02/13 04:55:11;;;;;;;20.77;12.68;;;;;;;12.84;100.00;102902.72;4977545;28;20026;-71
2023/02/13 04:57:37;;;;;;;22.83;12.70;;;;;;;12.82;100.00;102902.19;4977096;28;20380;-71
2023/02/13 05:00:04;;;;;;;27.92;13.15;;;;;;;12.77;100.00;102912.09;4977190;28;20026;-71
2023/02/13 05:02:30;;;;;;;29.70;14.32;;;;;;;12.81;100.00;102903.28;4976919;28;20117;-75
2023/02/13 05:04:56;;;;;;;25.33;13.07;;;;;;;12.72;100.00;102903.03;4976749;28;20050;-71
2023/02/13 05:07:21;;;;;;;23.08;13.60;;;;;;;12.78;100.00;102910.16;4976992;28;20053;-71
2023/02/13 05:09:47;;;;;;;26.20;13.95;;;;;;;12.57;100.00;102903.84;4977234;28;20385;-71
2023/02/13 05:12:12;;;;;;;23.10;12.25;;;;;;;12.78;100.00;102902.75;4977107;28;20031;-71
2023/02/13 05:14:38;;;;;;;22.85;13.35;;;;;;;12.68;100.00;102897.25;4977042;28;20425;-71
2023/02/13 05:17:03;;;;;;;25.73;12.65;;;;;;;12.56;100.00;102901.38;4976821;28;20034;-71
2023/02/13 05:19:29;;;;;;;25.67;12.50;;;;;;;12.52;100.00;102903.84;4976776;28;20034;-72
2023/02/13 05:24:39;;;;;;;23.85;12.98;;;;;;;12.59;100.00;102901.66;4976737;28;20085;-71
2023/02/13 05:27:07;;;;;;;25.25;12.45;;;;;;;12.54;100.00;102900.81;4976981;28;20536;-75
2023/02/13 05:29:33;;;;;;;27.30;13.25;;;;;;;12.50;100.00;102904.13;4976604;28;20454;-72
2023/02/13 05:31:58;;;;;;;21.08;13.02;;;;;;;12.43;100.00;102900.00;4976839;28;20033;-81
2023/02/13 05:34:26;;;;;;;23.58;13.57;;;;;;;12.41;100.00;102902.19;4976789;28;20034;-72
2023/02/13 05:36:52;;;;;;;23.40;11.85;;;;;;;12.46;100.00;102905.75;4976445;28;20027;-71
2023/02/13 05:39:18;;;;;;;25.33;13.32;;;;;;;12.50;100.00;102906.84;4976501;28;20030;-71
2023/02/13 05:41:45;;;;;;;20.88;11.80;;;;;;;12.48;100.00;102902.75;4976456;28;20113;-71
2023/02/13 05:44:11;;;;;;;26.13;13.52;;;;;;;12.45;100.00;102897.78;4976630;28;20081;-71
2023/02/13 05:46:38;;;;;;;24.23;12.70;;;;;;;12.21;100.00;102901.06;4976263;28;20542;-70
2023/02/13 05:49:04;;;;;;;24.25;14.23;;;;;;;12.30;100.00;102889.56;4976612;28;20385;-71
2023/02/13 05:51:30;;;;;;;17.45;11.05;;;;;;;12.43;100.00;102891.78;4975908;28;20035;-79
2023/02/13 05:53:55;;;;;;;25.98;11.80;;;;;;;12.16;100.00;102889.25;4967615;28;20035;-80
2023/02/13 05:56:21;;;;;;;22.38;12.48;;;;;;;12.02;100.00;102886.25;4955803;28;20045;-71
2023/02/13 05:58:51;;;;;;;14.32;9.50;;;;;;;12.13;100.00;102892.56;4956752;28;20390;-71
2023/02/13 06:01:16;;;;;;;;;;;;;;;12.02;100.00;102888.97;4957342;28;20114;-71
2023/02/13 06:03:42;;;;;;;20.75;12.20;;;;;;;12.35;100.00;102889.56;4956852;28;20075;-71
2023/02/13 06:06:07;;;;;;;22.25;11.13;;;;;;;12.21;100.00;102881.06;4956565;28;20052;-71
2023/02/13 06:08:33;;;;;;;26.05;13.57;;;;;;;12.33;100.00;102887.13;4956920;28;20114;-71
2023/02/13 06:10:59;;;;;;;28.15;11.77;;;;;;;12.51;100.00;102885.75;4956614;28;20027;-83
2023/02/13 06:13:24;;;;;;;24.30;11.45;;;;;;;12.70;100.00;102884.13;4956555;28;20066;-71
2023/02/13 06:15:50;;;;;;;21.02;11.60;;;;;;;12.65;100.00;102881.34;4956500;28;20035;-71
2023/02/13 06:18:16;;;;;;;24.38;12.18;;;;;;;12.65;100.00;102873.13;4956467;28;20094;-71
2023/02/13 06:20:41;;;;;;;19.42;11.23;;;;;;;12.56;100.00;102871.22;4956689;28;20031;-72
2023/02/13 06:23:07;;;;;;;22.50;11.68;;;;;;;12.31;100.00;102877.50;4956609;28;20055;-71
2023/02/13 06:25:36;;;;;;;25.00;11.25;;;;;;;12.40;100.00;102876.72;4956260;28;20532;-71
2023/02/13 06:28:03;;;;;;;24.00;12.27;;;;;;;12.67;100.00;102876.41;4956277;28;20034;-71
2023/02/13 06:30:29;;;;;;;21.35;11.10;;;;;;;12.53;100.00;102875.31;4956242;28;20063;-72
2023/02/13 06:32:54;;;;;;;24.05;12.38;;;;;;;12.50;100.00;102870.38;4956159;28;20027;-72
2023/02/13 06:35:20;;;;;;;21.60;12.65;;;;;;;12.52;100.00;102853.66;4956154;28;20556;-71
2023/02/13 06:37:45;;;;;;;25.60;14.13;;;;;;;12.45;100.00;102849.25;4970048;28;20033;-71
2023/02/13 06:40:12;;;;;;;20.17;12.50;;;;;;;12.48;100.00;102859.69;4975308;28;20031;-71
2023/02/13 06:42:38;;;;;;;32.67;13.45;;;;;;;12.58;100.00;102853.38;4975291;28;20022;-71
2023/02/13 06:45:05;;;;;;;20.02;11.50;;;;;;;12.39;100.00;102861.34;4974572;28;20066;-71
2023/02/13 06:47:30;;;;;;;20.85;11.70;;;;;;;12.22;100.00;102856.09;4974070;28;20118;-72
2023/02/13 06:49:56;;;;;;;21.02;11.95;;;;;;;12.05;100.00;102863.78;4975443;28;20569;-71
2023/02/13 06:52:21;;;;;;;25.70;11.70;;;;;;;11.83;100.00;102861.25;4975020;28;20031;-71
2023/02/13 06:54:47;;;;;;;23.15;12.10;;;;;;;11.92;100.00;102858.81;4975266;28;20023;-71
2023/02/13 06:57:12;;;;;;;19.55;11.50;;;;;;;11.98;100.00;102854.97;4975211;28;20386;-71
2023/02/13 06:59:38;;;;;;;23.67;11.63;;;;;;;12.00;100.00;102858.28;4974942;28;20019;-79
2023/02/13 07:02:03;;;;;;;24.73;12.27;;;;;;;11.77;100.00;102851.34;4974046;28;20054;-80
2023/02/13 07:04:29;;;;;;;19.17;10.75;;;;;;;11.58;100.00;102853.75;4974897;28;20035;-81
2023/02/13 07:06:55;;;;;;;23.85;11.75;;;;;;;11.72;100.00;102861.47;4971848;28;20023;-72
2023/02/13 07:09:22;;;;;;;23.23;11.40;;;;;;;11.72;100.00;102851.34;4975164;28;20022;-80
2023/02/13 07:11:47;;;;;;;21.77;11.98;;;;;;;12.00;100.00;102858.28;4974785;28;20064;-71
2023/02/13 07:14:13;;;;;;;23.70;10.90;;;;;;;12.10;100.00;102855.56;4958686;28;20143;-77
2023/02/13 07:16:38;;;;;;;24.88;12.52;;;;;;;11.99;100.00;102856.63;4955415;28;20027;-72
2023/02/13 07:19:04;;;;;;;17.45;11.63;;;;;;;12.05;100.00;102850.06;4955305;28;20024;-72
2023/02/13 07:21:29;;;;;;;30.00;12.93;;;;;;;11.97;100.00;102863.47;4954077;28;20030;-71
2023/02/13 07:23:55;;;;;;;22.83;11.85;;;;;;;11.94;100.00;102854.72;4955412;28;20500;-71
2023/02/13 07:26:20;;;;;;;22.80;12.50;;;;;;;11.95;100.00;102858.28;4955259;28;20471;-71
2023/02/13 07:28:46;;;;;;;23.38;12.00;;;;;;;12.01;100.00;102862.66;4958157;28;20031;-71
2023/02/13 07:31:12;;;;;;;19.65;12.05;;;;;;;11.87;100.00;102848.69;4966894;28;20024;-71
2023/02/13 07:33:37;;;;;;;21.55;12.13;;;;;;;11.57;100.00;102848.56;4955004;28;20094;-71
2023/02/13 07:36:03;;;;;;;21.45;11.73;;;;;;;11.76;100.00;102851.59;4955006;29;20134;-81
2023/02/13 07:38:30;;;;;;;25.42;14.10;;;;;;;11.68;100.00;102853.78;4955014;28;20033;-72
2023/02/13 07:40:59;;;;;;;26.45;13.20;;;;;;;11.57;100.00;102854.03;4965012;28;20027;-71
2023/02/13 07:43:26;;;;;;;20.25;11.60;;;;;;;11.52;100.00;102856.75;4955460;28;20509;-81
2023/02/13 07:45:54;;;;;;;26.15;11.63;;;;;;;11.78;100.00;102846.69;4954979;28;20061;-71
2023/02/13 07:48:22;;;;;;;24.75;12.05;;;;;;;11.80;100.00;102847.25;4955026;28;20047;-71
2023/02/13 07:50:48;;;;;;;23.83;11.18;;;;;;;11.80;100.00;102848.09;4973536;28;20504;-71
2023/02/13 07:53:13;;;;;;;20.90;11.02;;;;;;;11.88;100.00;102849.50;4968033;28;20035;-71
2023/02/13 07:55:39;;;;;;;22.98;11.75;;;;;;;11.96;100.00;102837.19;4962657;28;20449;-71
2023/02/13 07:58:05;;;;;;;22.60;10.85;;;;;;;12.02;100.00;102842.41;4965236;28;20023;-71
2023/02/13 08:00:30;;;;;;;20.73;11.07;;;;;;;11.92;100.00;102856.88;4953468;29;20050;-71
2023/02/13 08:02:59;;;;;;;19.38;10.95;;;;;;;12.13;100.00;102851.44;4968700;28;20034;-71
2023/02/13 08:05:25;;;;;;;21.13;10.23;;;;;;;11.94;100.00;102851.16;4967690;28;20047;-81
2023/02/13 08:07:51;;;;;;;23.40;11.00;;;;;;;11.73;100.00;102841.22;4956047;28;20040;-82
2023/02/13 08:13:01;;;;;;;18.33;11.90;;;;;;;11.92;100.00;102865.09;4965528;28;20045;-71
2023/02/13 08:15:27;;;;;;;21.92;12.32;;;;;;;12.01;100.00;102859.91;4974058;28;20030;-71
2023/02/13 08:17:52;;;;;;;24.10;12.50;;;;;;;12.18;100.00;102856.94;4974098;28;20046;-72
2023/02/13 08:20:18;;;;;;;22.42;12.45;;;;;;;12.00;100.00;102863.75;4971734;28;20470;-73
2023/02/13 08:22:44;;;;;;;21.38;12.38;;;;;;;12.27;100.00;102862.72;4973650;28;20027;-72
2023/02/13 08:25:09;;;;;;;21.27;12.05;;;;;;;12.31;100.00;102866.53;4973582;28;20069;-71
2023/02/13 08:27:35;;;;;;;21.10;12.30;;;;;;;12.47;100.00;102868.22;4973925;28;20030;-72
2023/02/13 08:30:02;;;;;;;20.45;10.90;;;;;;;12.42;100.00;102869.03;4973613;28;20030;-79
2023/02/13 08:32:27;;;;;;;17.35;12.30;;;;;;;12.42;100.00;102865.47;4973670;28;20058;-71
2023/02/13 08:34:53;;;;;;;21.95;11.30;;;;;;;12.64;100.00;102868.75;4973579;28;20521;-72
2023/02/13 08:37:18;;;;;;;17.30;11.20;;;;;;;12.67;100.00;102872.84;4973556;28;20031;-76
2023/02/13 08:39:44;;;;;;;25.35;12.60;;;;;;;12.59;100.00;102870.66;4973622;28;20035;-71
2023/02/13 08:42:10;;;;;;;17.08;10.82;;;;;;;12.83;100.00;102873.66;4973595;28;20038;-72
2023/02/13 08:44:36;;;;;;;18.50;11.13;;;;;;;12.84;100.00;102867.06;4972104;28;20081;-72
2023/02/13 08:47:02;;;;;;;24.40;11.95;;;;;;;12.78;100.00;102869.00;4971817;28;20086;-75
2023/02/13 08:49:29;;;;;;;15.57;10.02;;;;;;;12.91;100.00;102873.09;4963075;28;20106;-72
2023/02/13 08:51:54;;;;;;;19.05;10.43;;;;;;;12.67;100.00;102870.09;4963930;28;20470;-71
2023/02/13 08:54:20;;;;;;;24.63;11.30;;;;;;;12.74;100.00;102874.22;4954091;29;20069;-70
2023/02/13 08:56:46;;;;;;;19.67;9.60;;;;;;;13.08;100.00;102875.56;4971977;28;20634;-70
2023/02/13 08:59:11;;;;;;;20.92;11.27;;;;;;;13.14;100.00;102880.72;4971867;28;20035;-74
2023/02/13 09:01:37;;;;;;;16.30;10.70;;;;;;;13.05;100.00;102874.16;4970311;28;20029;-70
2023/02/13 09:04:02;;;;;;;14.13;10.80;;;;;;;13.24;100.00;102885.41;4972865;28;20023;-73
2023/02/13 09:06:28;;;;;;;14.98;10.18;;;;;;;13.33;100.00;102886.47;4972807;28;20035;-71
2023/02/13 09:08:54;;;;;;;17.23;11.18;;;;;;;13.33;100.00;102881.00;4973723;28;20070;-71
2023/02/13 09:11:22;;;;;;;21.38;10.98;;;;;;;13.35;100.00;102883.44;4973543;28;20433;-70
2023/02/13 09:13:48;;;;;;;18.48;10.25;;;;;;;13.39;100.00;102887.31;4971750;28;20437;-70
2023/02/13 09:16:14;;;;;;;19.38;10.55;;;;;;;13.40;100.00;102891.69;4971369;28;20027;-70
2023/02/13 09:18:40;;;;;;;16.92;10.10;;;;;;;13.38;100.00;102885.66;4971198;28;20031;-72
2023/02/13 09:21:08;;;;;;;18.10;10.75;;;;;;;13.45;100.00;102887.00;4970579;28;20386;-71
2023/02/13 09:23:35;;;;;;;17.95;11.30;;;;;;;13.68;100.00;102888.28;4970974;28;20038;-75
2023/02/13 09:26:03;;;;;;;15.85;10.30;;;;;;;13.59;100.00;102884.44;4985121;28;20030;-72
2023/02/13 09:28:29;;;;;;;25.42;10.85;;;;;;;13.62;100.00;102881.16;4970992;28;20022;-70
2023/02/13 09:30:55;;;;;;;23.13;11.23;;;;;;;13.72;100.00;102881.09;4974245;28;20035;-70
2023/02/13 09:33:21;;;;;;;18.10;10.68;;;;;;;13.87;100.00;102883.78;4976527;28;20494;-71
2023/02/13 09:35:46;;;;;;;13.60;9.75;;;;;;;13.90;100.00;102885.13;4975239;28;20034;-70
2023/02/13 09:38:13;;;;;;;19.33;10.57;;;;;;;13.94;100.00;102880.72;4976382;28;20031;-73
2023/02/13 09:40:42;;;;;;;17.58;11.00;;;;;;;13.93;100.00;102889.25;4976443;28;20027;-78
2023/02/13 09:43:16;;;;;;;22.45;13.13;;;;;;;14.00;100.00;102878.75;4976177;28;20478;-70
2023/02/13 09:45:44;;;;;;;19.15;11.82;;;;;;;14.10;100.00;102879.50;4976304;28;20058;-71
2023/02/13 09:48:36;;;;;;;17.85;12.20;;;;;;;14.18;100.00;102877.25;4975873;28;20045;-79
2023/02/13 09:51:03;;;;;;;19.05;11.70;;;;;;;14.11;100.00;102874.84;4974537;28;20114;-79
2023/02/13 09:53:32;;;;;;;17.05;11.75;;;;;;;14.35;100.00;102864.75;4956799;28;20146;-85
2023/02/13 09:56:14;;;;;;;20.53;12.23;;;;;;;14.40;100.00;102872.97;4967786;28;20038;-71
2023/02/13 09:58:45;;;;;;;19.50;12.07;;;;;;;14.57;100.00;102860.75;4976017;28;20039;-82
2023/02/13 10:01:35;;;;;;;17.95;10.23;;;;;;;14.60;100.00;102868.47;4966837;28;20043;-78
2023/02/13 10:04:16;;;;;;;19.80;11.68;;;;;;;14.78;100.00;102867.72;4971202;28;20042;-73
2023/02/13 10:06:51;;;;;;;18.20;11.23;;;;;;;15.14;100.00;102865.44;4970857;28;20070;-71
2023/02/13 10:09:29;;;;;;;16.75;11.07;;;;;;;15.13;100.00;102871.25;4966146;28;20031;-73
2023/02/13 10:12:04;;;;;;;19.45;11.68;;;;;;;15.19;100.00;102859.88;4967912;28;20536;-77
2023/02/13 10:14:36;;;;;;;20.60;12.20;;;;;;;15.26;100.00;102854.84;4969326;28;20077;-77
2023/02/13 10:17:12;;;;;;;20.23;12.27;;;;;;;15.24;100.00;102870.81;4968676;28;20027;-74
2023/02/13 10:19:49;;;;;;;16.33;10.60;;;;;;;15.51;100.00;102869.41;4966564;28;20130;-82
2023/02/13 10:22:21;;;;;;;19.95;11.52;;;;;;;15.70;100.00;102858.44;4968246;28;20452;-71
2023/02/13 10:25:03;;;;;;;18.63;10.88;;;;;;;15.68;100.00;102874.44;4968453;28;20035;-72
2023/02/13 10:27:37;;;;;;;17.80;13.82;;;;;;;15.35;100.00;102860.50;4967380;28;20034;-76
2023/02/13 10:30:33;;;;;;;15.48;11.68;;;;;;;15.45;100.00;102854.06;4956277;28;20038;-76
2023/02/13 10:33:21;;;;;;;16.75;12.35;;;;;;;15.62;100.00;102867.38;4960458;28;20031;-71
2023/02/13 10:35:59;;;;;;;16.30;12.23;;;;;;;15.75;100.00;102869.41;4966836;28;20162;-77
2023/02/13 10:38:29;;;;;;;22.63;15.10;;;;;;;15.95;100.00;102860.84;4967530;28;20027;-76
2023/02/13 10:41:13;;;;;;;22.45;15.90;;;;;;;15.90;99.80;102857.34;4975386;28;20027;-77
2023/02/13 10:44:12;;;;;;;19.38;13.85;;;;;;;15.89;100.00;102856.53;4960392;28;20110;-76
2023/02/13 10:47:15;;;;;;;18.30;13.23;;;;;;;16.02;98.62;102860.44;4955954;29;20028;-76
2023/02/13 10:49:52;;;;;;;24.83;13.35;;;;;;;16.17;95.91;102857.50;4956365;28;20462;-76
2023/02/13 10:52:57;;;;;;;26.95;13.43;;;;;;;16.23;94.42;102870.06;4973962;28;20169;-78
2023/02/13 10:55:51;;;;;;;62.70;17.20;;;;;;;16.32;92.45;102861.91;4971128;28;20028;-77
2023/02/13 10:58:30;;;;;;;18.90;12.60;;;;;;;16.37;92.74;102868.19;4974830;28;20039;-76
2023/02/13 11:01:29;;;;;;;21.27;12.48;;;;;;;16.42;90.11;102861.78;4958026;28;20034;-75
2023/02/13 11:04:11;;;;;;;16.73;12.43;;;;;;;16.46;87.81;102854.50;4955082;28;20394;-77
2023/02/13 11:06:42;;;;;;;17.60;12.43;;;;;;;16.39;87.36;102851.31;4973402;28;20398;-77
2023/02/13 11:09:08;;;;;;;20.08;13.38;;;;;;;16.35;87.99;102855.81;4974554;28;20027;-76
2023/02/13 11:11:39;;;;;;;18.42;13.82;;;;;;;16.53;82.53;102848.59;4974397;28;20038;-74
2023/02/13 11:14:28;;;;;;;21.50;14.32;;;;;;;16.70;79.73;102848.06;4973593;28;20501;-78
2023/02/13 11:17:03;;;;;;;20.88;13.38;;;;;;;16.83;79.82;102856.38;4973704;28;20066;-76
2023/02/13 11:19:54;;;;;;;21.25;13.20;;;;;;;16.76;81.01;102855.13;4974585;28;20018;-76
2023/02/13 11:22:33;;;;;;;18.33;12.45;;;;;;;16.78;79.55;102850.16;4974923;28;20461;-77
2023/02/13 11:25:21;;;;;;;17.33;12.75;;;;;;;16.65;81.48;102844.25;4974349;28;20170;-75
2023/02/13 11:27:49;;;;;;;21.08;12.57;;;;;;;16.82;79.74;102832.66;4974438;28;20034;-78
2023/02/13 11:30:35;;;;;;;48.50;17.70;;;;;;;16.89;76.01;102838.59;4974696;28;20045;-76
2023/02/13 11:33:25;;;;;;;39.50;14.38;;;;;;;16.83;75.38;102827.94;4974240;28;20023;-75
2023/02/13 11:36:07;;;;;;;19.55;13.30;;;;;;;17.18;73.35;102832.78;4974555;28;20393;-76
2023/02/13 11:38:33;;;;;;;20.40;13.10;;;;;;;17.28;73.42;102830.94;4974378;28;20026;-76
2023/02/13 11:41:07;;;;;;;15.40;11.85;;;;;;;17.48;71.03;102817.50;4974251;28;20037;-77
2023/02/13 11:43:45;;;;;;;19.85;12.68;;;;;;;17.17;72.78;102817.34;4974304;28;20031;-76
2023/02/13 11:46:13;;;;;;;21.95;14.65;;;;;;;17.02;76.42;102823.19;4974135;28;20556;-76
2023/02/13 11:48:39;;;;;;;17.55;13.57;;;;;;;17.07;76.59;102820.28;4972884;28;20046;-77
2023/02/13 11:51:05;;;;;;;32.05;16.20;;;;;;;17.07;77.09;102833.28;4974138;28;20027;-76
2023/02/13 11:53:36;;;;;;;24.05;14.02;;;;;;;16.96;77.26;102826.34;4972746;28;20030;-76
2023/02/13 11:56:10;;;;;;;26.45;14.88;;;;;;;17.16;74.77;102818.47;4969101;28;20033;-76
2023/02/13 11:58:36;;;;;;;21.90;14.68;;;;;;;17.20;75.86;102822.25;4973993;28;20098;-77
2023/02/13 12:01:22;;;;;;;20.63;13.90;;;;;;;17.22;75.44;102815.59;4966884;28;20146;-77